Casa Blanca, New Mexico
Current Conditions -  °F | °C
As of 11:57 PM on Sunday 23 Nov 2014 (Local Time) from KGNT Reporting Station
Clear Clear  
Wind Chill:   Ceiling: Unl
Heat Index: 16°   Visibility: 10mi
Dew Point:   Wind: 7mph
Humidity: 49%   Direction: 240°WSW
Pressure: 30.14"   Gusts: NA
Location:  35.04°N, 107.47°W
Report Text: KGNT 240657Z AUTO 24006KT 10SM CLR M09/M18 A3014 RMK AO2
Loading
Personal Weather Stations






























Interactive Weather Map New forecast layout! Learn more

10-Day Weather Forecast

Advertisements
Track Severe Weather on mobile